createdAt,value
2017-11-07T00:01:57.581Z,88.59
2017-11-07T00:04:26.646Z,88.35
2017-11-07T00:06:54.997Z,88.60
2017-11-07T00:09:23.290Z,88.48
2017-11-07T00:11:51.612Z,88.77
2017-11-07T00:14:19.899Z,88.58
2017-11-07T00:16:48.228Z,88.65
2017-11-07T00:19:16.483Z,88.45
2017-11-07T00:21:44.748Z,88.10
2017-11-07T00:24:13.812Z,88.98
2017-11-07T00:26:42.097Z,88.44
2017-11-07T00:29:10.376Z,88.13
2017-11-07T00:31:38.669Z,87.78
2017-11-07T00:34:07.714Z,87.58
2017-11-07T00:36:35.983Z,87.37
2017-11-07T00:39:04.251Z,87.58
2017-11-07T00:41:32.507Z,87.73
2017-11-07T00:44:01.562Z,87.41
2017-11-07T00:46:29.830Z,87.73
2017-11-07T00:48:58.120Z,87.93
2017-11-07T00:51:26.389Z,87.83
2017-11-07T00:53:54.651Z,87.72
2017-11-07T00:56:22.937Z,88.23
2017-11-07T00:58:51.205Z,87.76
2017-11-07T01:01:19.503Z,87.27
2017-11-07T01:03:47.777Z,87.70
2017-11-07T01:06:16.059Z,88.53
2017-11-07T01:08:44.346Z,87.68
2017-11-07T01:11:12.614Z,87.37
2017-11-07T01:13:40.888Z,87.08
2017-11-07T01:16:09.160Z,86.82
2017-11-07T01:18:37.427Z,86.70
2017-11-07T01:21:05.724Z,87.29
2017-11-07T01:23:33.979Z,87.09
2017-11-07T01:26:02.288Z,86.78
2017-11-07T01:28:31.384Z,87.06
2017-11-07T01:30:59.664Z,87.52
2017-11-07T01:33:27.976Z,87.07
2017-11-07T01:35:57.070Z,86.79
2017-11-07T01:38:26.105Z,86.68
2017-11-07T01:40:54.376Z,86.69
2017-11-07T01:43:22.651Z,86.69
2017-11-07T01:45:50.939Z,86.69
2017-11-07T01:48:19.206Z,86.83
2017-11-07T01:50:47.514Z,86.63
2017-11-07T01:53:15.840Z,86.68
2017-11-07T01:55:44.887Z,87.31
2017-11-07T01:58:13.237Z,87.29
2017-11-07T02:00:41.618Z,88.36
2017-11-07T02:03:09.943Z,88.41
2017-11-07T02:05:38.275Z,88.23
2017-11-07T02:08:07.326Z,87.66
2017-11-07T02:10:35.705Z,87.49
2017-11-07T02:13:04.058Z,87.13
2017-11-07T02:15:32.342Z,87.23
2017-11-07T02:18:00.949Z,86.83
2017-11-07T02:20:29.333Z,86.65
2017-11-07T02:22:57.647Z,86.45
2017-11-07T02:25:25.990Z,87.43
2017-11-07T02:27:54.381Z,87.13
2017-11-07T02:30:23.506Z,86.81
2017-11-07T02:32:51.789Z,87.47
2017-11-07T02:35:20.123Z,87.95
2017-11-07T02:37:48.452Z,87.79
2017-11-07T02:40:16.921Z,87.32
2017-11-07T02:42:45.328Z,87.19
2017-11-07T02:45:13.691Z,86.89
2017-11-07T02:47:42.129Z,87.25
2017-11-07T02:50:10.597Z,87.07
2017-11-07T02:52:39.036Z,87.26
2017-11-07T02:55:07.472Z,87.92
2017-11-07T02:57:36.647Z,88.12
2017-11-07T03:00:05.048Z,88.42
2017-11-07T03:02:33.607Z,88.01
2017-11-07T03:05:01.958Z,88.86
2017-11-07T03:07:30.291Z,88.12
2017-11-07T03:09:58.773Z,88.65
2017-11-07T03:12:27.066Z,88.20
2017-11-07T03:14:56.166Z,88.30
2017-11-07T03:17:25.360Z,88.86
2017-11-07T03:19:54.409Z,88.38
2017-11-07T03:22:22.838Z,88.37
2017-11-07T03:24:51.139Z,88.72
2017-11-07T03:27:19.481Z,88.72
2017-11-07T03:29:47.917Z,88.71
2017-11-07T03:32:16.200Z,87.88
2017-11-07T03:34:44.607Z,87.65
2017-11-07T03:37:13.274Z,88.08
2017-11-07T03:39:41.555Z,88.15
2017-11-07T03:42:09.900Z,87.69
2017-11-07T03:44:38.198Z,87.56
2017-11-07T03:47:06.504Z,87.84
2017-11-07T03:49:34.793Z,87.57
2017-11-07T03:52:03.081Z,87.33
2017-11-07T03:54:31.393Z,87.63
2017-11-07T03:56:59.730Z,88.05
2017-11-07T03:59:28.027Z,88.16
2017-11-07T04:01:56.315Z,87.69
2017-11-07T04:04:25.454Z,88.01
2017-11-07T04:06:54.146Z,87.73
2017-11-07T04:09:22.452Z,87.63
2017-11-07T04:11:51.069Z,87.32
2017-11-07T04:14:19.336Z,87.73
2017-11-07T04:16:48.431Z,87.71
2017-11-07T04:19:17.528Z,87.51
2017-11-07T04:21:46.268Z,87.94
2017-11-07T04:24:15.221Z,88.13
2017-11-07T04:26:43.502Z,88.03
2017-11-07T04:29:11.776Z,88.09
2017-11-07T04:31:40.858Z,88.10
2017-11-07T04:34:10.317Z,87.55
2017-11-07T04:36:38.685Z,87.69
2017-11-07T04:39:06.976Z,87.72
2017-11-07T04:41:35.247Z,87.22
2017-11-07T04:44:03.544Z,87.21
2017-11-07T04:46:32.087Z,87.28
2017-11-07T04:49:00.356Z,87.13
2017-11-07T04:51:29.389Z,87.05
2017-11-07T04:53:57.674Z,87.33
2017-11-07T04:56:25.929Z,87.44
2017-11-07T04:58:54.236Z,87.31
2017-11-07T05:01:22.518Z,87.09
2017-11-07T05:03:50.861Z,87.06
2017-11-07T05:06:19.187Z,86.97
2017-11-07T05:08:47.478Z,86.89
2017-11-07T05:11:16.148Z,86.91
2017-11-07T05:13:44.500Z,86.86
2017-11-07T05:16:12.826Z,86.98
2017-11-07T05:18:41.887Z,87.51
2017-11-07T05:21:10.147Z,87.07
2017-11-07T05:23:38.449Z,86.90
2017-11-07T05:26:06.721Z,86.84
2017-11-07T05:28:35.578Z,86.85
2017-11-07T05:31:03.859Z,86.85
2017-11-07T05:33:33.020Z,86.83
2017-11-07T05:36:02.074Z,86.98
2017-11-07T05:38:30.354Z,86.80
2017-11-07T05:40:58.626Z,86.78
2017-11-07T05:43:27.423Z,86.83
2017-11-07T05:45:55.714Z,86.91
2017-11-07T05:48:24.910Z,86.81
2017-11-07T05:50:53.181Z,87.45
2017-11-07T05:53:21.489Z,87.62
2017-11-07T05:55:49.821Z,87.98
2017-11-07T05:58:18.125Z,88.14
2017-11-07T06:00:46.407Z,87.93
2017-11-07T06:03:14.724Z,87.49
2017-11-07T06:05:43.020Z,87.32
2017-11-07T06:08:11.305Z,87.27
2017-11-07T06:10:39.604Z,87.25
2017-11-07T06:13:08.306Z,87.17
2017-11-07T06:15:36.583Z,87.14
2017-11-07T06:18:04.877Z,87.08
2017-11-07T06:20:33.174Z,87.03
2017-11-07T06:23:02.216Z,87.12
2017-11-07T06:25:30.536Z,87.20
2017-11-07T06:27:59.567Z,87.62
2017-11-07T06:30:27.887Z,87.51
2017-11-07T06:32:56.175Z,87.46
2017-11-07T06:35:24.557Z,87.52
2017-11-07T06:37:53.808Z,87.71
2017-11-07T06:40:22.113Z,87.77
2017-11-07T06:42:50.378Z,87.98
2017-11-07T06:45:18.715Z,88.72
2017-11-07T06:47:47.823Z,89.20
2017-11-07T06:50:16.566Z,89.17
2017-11-07T06:52:46.091Z,89.13
2017-11-07T06:55:15.192Z,89.21
2017-11-07T06:57:43.567Z,89.00
2017-11-07T07:00:11.942Z,88.66
2017-11-07T07:02:40.536Z,88.49
2017-11-07T07:05:09.687Z,88.38
2017-11-07T07:07:38.009Z,88.35
2017-11-07T07:10:06.350Z,88.58
2017-11-07T07:12:34.654Z,88.84
2017-11-07T07:15:03.013Z,88.58
2017-11-07T07:17:31.511Z,88.73
2017-11-07T07:19:59.849Z,88.70
2017-11-07T07:22:28.262Z,88.69
2017-11-07T07:24:56.661Z,88.90
2017-11-07T07:27:25.341Z,88.84
2017-11-07T07:29:53.729Z,88.60
2017-11-07T07:32:22.013Z,88.87
2017-11-07T07:34:50.472Z,88.64
2017-11-07T07:37:18.780Z,88.71
2017-11-07T07:39:47.820Z,88.56
2017-11-07T07:42:16.541Z,88.40
2017-11-07T07:44:44.798Z,88.41
2017-11-07T07:47:13.068Z,88.23
2017-11-07T07:49:41.366Z,88.63
2017-11-07T07:52:09.652Z,89.58
2017-11-07T07:54:38.419Z,90.14
2017-11-07T07:57:06.672Z,89.76
2017-11-07T07:59:35.371Z,89.88
2017-11-07T08:02:03.662Z,89.76
2017-11-07T08:04:32.451Z,89.79
2017-11-07T08:07:00.719Z,89.34
2017-11-07T08:09:29.127Z,89.24
2017-11-07T08:11:57.446Z,88.99
2017-11-07T08:14:26.915Z,89.12
2017-11-07T08:16:55.218Z,89.10
2017-11-07T08:19:24.277Z,88.84
2017-11-07T08:21:52.548Z,88.69
2017-11-07T08:24:20.859Z,88.41
2017-11-07T08:26:49.166Z,89.30
2017-11-07T08:29:17.459Z,89.15
2017-11-07T08:31:45.744Z,90.20
2017-11-07T08:34:14.011Z,89.95
2017-11-07T08:36:42.702Z,90.12
2017-11-07T08:39:10.964Z,90.33
2017-11-07T08:41:39.234Z,90.12
2017-11-07T08:44:08.288Z,90.42
2017-11-07T08:46:36.564Z,89.85
2017-11-07T08:49:04.826Z,89.57
2017-11-07T08:51:33.119Z,89.46
2017-11-07T08:54:01.429Z,89.91
2017-11-07T08:56:30.470Z,89.52
2017-11-07T08:58:58.763Z,89.13
2017-11-07T09:01:27.021Z,89.56
2017-11-07T09:03:55.309Z,89.18
2017-11-07T09:06:23.572Z,88.92
2017-11-07T09:08:51.832Z,88.39
2017-11-07T09:11:20.108Z,88.14
2017-11-07T09:13:48.381Z,88.67
2017-11-07T09:16:17.404Z,89.03
2017-11-07T09:18:45.677Z,88.99
2017-11-07T09:21:13.949Z,88.55
2017-11-07T09:23:42.207Z,88.03
2017-11-07T09:26:11.267Z,87.61
2017-11-07T09:28:39.532Z,87.61
2017-11-07T09:31:07.809Z,87.46
2017-11-07T09:33:36.060Z,87.40
2017-11-07T09:36:04.319Z,87.35
2017-11-07T09:38:33.576Z,86.60
2017-11-07T09:41:01.842Z,85.46
2017-11-07T09:43:30.116Z,85.25
2017-11-07T09:45:58.406Z,85.58
2017-11-07T09:48:28.182Z,85.92
2017-11-07T09:50:56.483Z,85.49
2017-11-07T09:53:24.742Z,85.00
2017-11-07T09:55:52.999Z,84.54
2017-11-07T09:58:21.285Z,84.57
2017-11-07T10:00:49.552Z,85.05
2017-11-07T10:03:17.810Z,85.08
2017-11-07T10:05:46.854Z,84.62
2017-11-07T10:08:15.117Z,84.90
2017-11-07T10:10:43.395Z,85.03
2017-11-07T10:13:11.682Z,84.45
2017-11-07T10:15:39.946Z,84.90
2017-11-07T10:18:08.240Z,84.27
2017-11-07T10:20:36.529Z,84.05
2017-11-07T10:23:04.801Z,83.98
2017-11-07T10:25:33.084Z,83.62
2017-11-07T10:28:01.358Z,83.77
2017-11-07T10:30:29.651Z,83.38
2017-11-07T10:32:58.218Z,84.05
2017-11-07T10:35:26.482Z,83.78
2017-11-07T10:37:54.818Z,84.02
2017-11-07T10:40:23.107Z,84.19
2017-11-07T10:42:51.384Z,83.88
2017-11-07T10:45:19.667Z,83.50
2017-11-07T10:47:48.701Z,83.54
2017-11-07T10:50:16.967Z,83.07
2017-11-07T10:52:45.673Z,83.15
2017-11-07T10:55:13.935Z,83.06
2017-11-07T10:57:42.213Z,82.57
2017-11-07T11:00:10.497Z,82.63
2017-11-07T11:02:38.975Z,82.88
2017-11-07T11:05:07.260Z,82.50
2017-11-07T11:07:36.267Z,82.52
2017-11-07T11:10:04.982Z,82.18
2017-11-07T11:12:33.281Z,82.41
2017-11-07T11:15:02.051Z,82.29
2017-11-07T11:17:30.298Z,82.15
2017-11-07T11:19:58.613Z,82.08
2017-11-07T11:22:26.878Z,82.29
2017-11-07T11:24:55.169Z,82.62
2017-11-07T11:27:23.422Z,82.35
2017-11-07T11:29:51.689Z,82.09
2017-11-07T11:32:20.355Z,82.50
2017-11-07T11:34:48.615Z,82.05
2017-11-07T11:37:16.887Z,82.27
2017-11-07T11:39:45.161Z,82.03
2017-11-07T11:42:13.428Z,81.86
2017-11-07T11:44:41.711Z,82.08
2017-11-07T11:47:10.740Z,81.73
2017-11-07T11:49:39.024Z,81.71
2017-11-07T11:52:07.267Z,81.72
2017-11-07T11:54:35.656Z,81.70
2017-11-07T11:57:03.908Z,81.57
2017-11-07T11:59:32.986Z,81.45
2017-11-07T12:02:01.345Z,81.72
2017-11-07T12:04:29.654Z,81.48
2017-11-07T12:06:58.271Z,82.49
2017-11-07T12:09:26.998Z,82.12
2017-11-07T12:11:55.251Z,82.27
2017-11-07T12:14:23.530Z,82.11
2017-11-07T12:16:51.818Z,82.01
2017-11-07T12:19:20.089Z,81.81
2017-11-07T12:21:48.368Z,81.64
2017-11-07T12:24:16.637Z,81.79
2017-11-07T12:26:45.341Z,82.05
2017-11-07T12:29:13.596Z,81.75
2017-11-07T12:31:43.113Z,81.92
2017-11-07T12:34:11.376Z,82.27
2017-11-07T12:36:39.644Z,82.09
2017-11-07T12:39:07.930Z,81.97
2017-11-07T12:41:36.250Z,81.78
2017-11-07T12:44:04.929Z,81.53
2017-11-07T12:46:33.601Z,82.19
2017-11-07T12:49:01.894Z,82.16
2017-11-07T12:51:58.674Z,81.89
2017-11-07T12:54:26.948Z,81.63
2017-11-07T12:56:55.216Z,81.78
2017-11-07T12:59:23.492Z,81.60
2017-11-07T13:01:52.130Z,81.90
2017-11-07T13:04:20.380Z,81.81
2017-11-07T13:06:48.655Z,81.47
2017-11-07T13:09:16.925Z,81.75
2017-11-07T13:11:45.206Z,81.64
2017-11-07T13:14:14.646Z,81.66
2017-11-07T13:16:43.272Z,81.90
2017-11-07T13:19:12.347Z,81.98
2017-11-07T13:21:40.637Z,82.04
2017-11-07T13:24:08.907Z,82.05
2017-11-07T13:26:37.179Z,82.02
2017-11-07T13:29:05.452Z,81.94
2017-11-07T13:31:33.709Z,81.85
2017-11-07T13:34:01.993Z,81.75
2017-11-07T13:36:30.267Z,82.00
2017-11-07T13:38:58.537Z,82.48
2017-11-07T13:41:27.436Z,82.44
2017-11-07T13:43:55.704Z,82.34
2017-11-07T13:46:24.001Z,82.18
2017-11-07T13:48:52.302Z,82.48
2017-11-07T13:51:20.966Z,82.47
2017-11-07T13:53:49.298Z,82.41
2017-11-07T13:56:17.553Z,82.53
2017-11-07T13:58:45.879Z,82.62
2017-11-07T14:01:14.967Z,82.53
2017-11-07T14:03:45.303Z,82.52
2017-11-07T14:06:13.576Z,82.39
2017-11-07T14:08:42.618Z,82.40
2017-11-07T14:11:10.887Z,82.33
2017-11-07T14:13:39.148Z,82.58
2017-11-07T14:16:07.415Z,83.15
2017-11-07T14:18:35.709Z,83.31
2017-11-07T14:21:03.967Z,83.04
2017-11-07T14:23:32.250Z,82.85
2017-11-07T14:26:00.509Z,82.86
2017-11-07T14:28:29.646Z,82.79
2017-11-07T14:30:57.918Z,82.45
2017-11-07T14:33:26.189Z,82.44
2017-11-07T14:35:54.466Z,82.44
2017-11-07T14:38:22.841Z,82.48
2017-11-07T14:40:51.142Z,82.40
2017-11-07T14:43:19.435Z,82.44
2017-11-07T14:45:47.697Z,82.48
2017-11-07T14:48:16.006Z,82.74
2017-11-07T14:50:44.268Z,82.78
2017-11-07T14:53:12.548Z,83.06
2017-11-07T14:55:40.821Z,83.23
2017-11-07T14:58:09.872Z,83.70
2017-11-07T15:00:38.151Z,83.98
2017-11-07T15:03:07.182Z,83.85
2017-11-07T15:05:35.473Z,83.59
2017-11-07T15:08:04.150Z,83.43
2017-11-07T15:10:32.430Z,83.43
2017-11-07T15:13:00.708Z,83.25
2017-11-07T15:15:28.988Z,83.12
2017-11-07T15:17:57.405Z,83.18
2017-11-07T15:20:25.713Z,83.11
2017-11-07T15:22:53.990Z,83.34
2017-11-07T15:25:22.345Z,83.70
2017-11-07T15:27:50.612Z,83.83
2017-11-07T15:30:18.906Z,83.91
2017-11-07T15:32:47.641Z,83.81
2017-11-07T15:35:15.942Z,83.79
2017-11-07T15:37:44.199Z,84.15
2017-11-07T15:40:12.465Z,84.74
2017-11-07T15:42:40.766Z,85.00
2017-11-07T15:45:09.041Z,84.94
2017-11-07T15:47:37.572Z,84.58
2017-11-07T15:50:06.587Z,84.96
2017-11-07T15:52:34.876Z,84.62
2017-11-07T15:55:03.161Z,84.62
2017-11-07T15:59:33.707Z,84.00
2017-11-07T16:02:01.976Z,84.74
2017-11-07T16:04:30.243Z,84.69
2017-11-07T16:06:58.512Z,85.00
2017-11-07T16:09:26.781Z,84.45
2017-11-07T16:11:55.063Z,84.38
2017-11-07T16:14:24.099Z,84.34
2017-11-07T16:16:52.393Z,84.15
2017-11-07T16:19:21.065Z,83.85
2017-11-07T16:21:49.323Z,83.59
2017-11-07T16:24:17.637Z,83.48
2017-11-07T16:26:47.422Z,83.67
2017-11-07T16:29:15.692Z,83.95
2017-11-07T16:31:43.985Z,84.08
2017-11-07T16:34:12.255Z,83.76
2017-11-07T16:36:40.537Z,83.58
2017-11-07T16:39:08.789Z,83.44
2017-11-07T16:41:37.085Z,83.31
2017-11-07T16:44:05.359Z,83.42
2017-11-07T16:46:33.631Z,83.27
2017-11-07T16:49:01.910Z,83.16
2017-11-07T16:51:30.186Z,83.59
2017-11-07T16:53:58.466Z,83.51
2017-11-07T16:56:26.743Z,83.72
2017-11-07T16:58:55.463Z,83.67
2017-11-07T17:01:24.459Z,82.98
2017-11-07T17:03:53.124Z,83.58
2017-11-07T17:06:21.834Z,83.72
2017-11-07T17:08:50.224Z,83.51
2017-11-07T17:11:18.500Z,83.40
2017-11-07T17:13:46.825Z,83.48
2017-11-07T17:16:15.091Z,83.74
2017-11-07T17:18:44.156Z,83.64
2017-11-07T17:21:12.453Z,83.82
2017-11-07T17:23:40.858Z,83.96
2017-11-07T17:26:09.190Z,84.04
2017-11-07T17:28:37.463Z,83.88
2017-11-07T17:31:05.728Z,84.04
2017-11-07T17:33:34.020Z,84.08
2017-11-07T17:36:02.324Z,84.12
2017-11-07T17:38:31.073Z,83.96
2017-11-07T17:40:59.341Z,84.18
2017-11-07T17:43:27.611Z,84.50
2017-11-07T17:45:55.903Z,84.62
2017-11-07T17:48:24.195Z,84.57
2017-11-07T17:50:54.032Z,84.54
2017-11-07T17:53:23.191Z,84.53
2017-11-07T17:55:51.486Z,84.28
2017-11-07T17:58:19.756Z,84.06
2017-11-07T18:00:48.892Z,83.92
2017-11-07T18:03:17.179Z,83.94
2017-11-07T18:05:46.228Z,83.89
2017-11-07T18:08:15.525Z,84.32
2017-11-07T18:10:43.808Z,84.39
2017-11-07T18:13:12.072Z,84.67
2017-11-07T18:15:40.343Z,84.85
2017-11-07T18:18:08.634Z,85.02
2017-11-07T18:20:37.855Z,85.00
2017-11-07T18:23:06.921Z,84.92
2017-11-07T18:25:35.206Z,84.89
2017-11-07T18:28:03.889Z,84.69
2017-11-07T18:30:32.289Z,84.60
2017-11-07T18:33:00.896Z,84.69
2017-11-07T18:35:29.434Z,84.51
2017-11-07T18:37:57.706Z,84.68
2017-11-07T18:40:26.064Z,84.55
2017-11-07T18:42:54.361Z,84.66
2017-11-07T18:45:22.636Z,84.98
2017-11-07T18:47:53.373Z,84.87
2017-11-07T18:50:21.669Z,85.17
2017-11-07T18:52:50.787Z,85.30
2017-11-07T18:55:19.121Z,85.26
2017-11-07T18:57:49.033Z,85.15
2017-11-07T19:00:17.304Z,84.99
2017-11-07T19:02:47.910Z,84.45
2017-11-07T19:05:16.211Z,84.66
2017-11-07T19:07:45.264Z,84.60
2017-11-07T19:10:14.184Z,84.66
2017-11-07T19:12:43.349Z,84.84
2017-11-07T19:15:11.701Z,85.04
2017-11-07T19:17:40.406Z,85.13
2017-11-07T19:20:08.687Z,85.29
2017-11-07T19:22:36.963Z,85.08
2017-11-07T19:25:05.317Z,85.06
2017-11-07T19:27:33.610Z,84.92
2017-11-07T19:30:02.610Z,85.18
2017-11-07T19:32:30.930Z,85.19
2017-11-07T19:34:59.234Z,85.58
2017-11-07T19:37:28.679Z,85.58
2017-11-07T19:39:56.936Z,85.40
2017-11-07T20:00:30.266Z,85.62
2017-11-07T20:21:05.219Z,86.64
2017-11-07T20:41:38.337Z,86.22
2017-11-07T21:48:23.066Z,88.95
2017-11-07T22:09:02.333Z,88.33
2017-11-07T22:29:39.750Z,88.32
2017-11-07T22:50:15.943Z,87.74
2017-11-07T23:10:51.220Z,87.83
2017-11-07T23:31:25.277Z,87.78
2017-11-07T23:51:58.829Z,87.14
